Time;durP1;ratioP1;P1;durP2;ratioP2;P2;SDS_P1;SDS_P2;PMS_P1;PMS_P2;Temp;Humidity;BMP_temperature;BMP_pressure;BME280_temperature;BME280_humidity;BME280_pressure;Samples;Min_cycle;Max_cycle;Signal;HPM_P1;HPM_P2
2022/06/27 00:00:45;;;;;;;10.32;5.85;;;18.00;99.90;;;;;;5110475;27;20078;-52
2022/06/27 00:03:11;;;;;;;10.38;5.50;;;18.00;99.90;;;;;;5108985;28;20036;-48
2022/06/27 00:05:37;;;;;;;9.70;5.82;;;17.90;99.90;;;;;;5107800;28;20475;-47
2022/06/27 00:08:03;;;;;;;8.82;5.55;;;17.90;99.90;;;;;;5110277;28;20054;-49
2022/06/27 00:10:29;;;;;;;9.07;5.63;;;18.00;99.90;;;;;;5106404;27;20039;-51
2022/06/27 00:12:55;;;;;;;7.97;5.85;;;17.90;99.90;;;;;;5108306;28;20483;-52
2022/06/27 00:15:21;;;;;;;8.30;5.90;;;17.80;99.90;;;;;;5110572;28;20428;-50
2022/06/27 00:17:47;;;;;;;8.68;5.72;;;17.90;99.90;;;;;;5110652;28;20062;-52
2022/06/27 00:20:13;;;;;;;10.48;5.82;;;17.90;99.90;;;;;;5109822;28;20044;-50
2022/06/27 00:22:39;;;;;;;9.93;6.43;;;17.90;99.90;;;;;;5109642;28;20458;-52
2022/06/27 00:25:05;;;;;;;9.80;6.30;;;17.80;99.90;;;;;;5111417;28;20546;-51
2022/06/27 00:27:31;;;;;;;8.45;5.93;;;17.80;99.90;;;;;;5110749;28;20034;-49
2022/06/27 00:29:57;;;;;;;9.38;6.82;;;17.80;99.90;;;;;;5111357;28;20035;-50
2022/06/27 00:32:23;;;;;;;12.48;7.05;;;17.70;99.90;;;;;;5110926;27;20622;-50
2022/06/27 00:34:49;;;;;;;10.20;6.88;;;17.70;99.90;;;;;;5110709;28;20040;-50
2022/06/27 00:37:16;;;;;;;10.55;7.10;;;17.70;99.90;;;;;;5093134;28;20085;-47
2022/06/27 00:39:41;;;;;;;10.73;7.10;;;17.60;99.90;;;;;;5111147;28;20039;-53
2022/06/27 00:42:07;;;;;;;8.93;6.90;;;17.70;99.90;;;;;;5110658;28;20058;-53
2022/06/27 00:44:36;;;;;;;11.52;6.68;;;17.60;99.90;;;;;;5111262;28;20540;-50
2022/06/27 00:47:03;;;;;;;10.30;6.70;;;17.60;99.90;;;;;;5110879;28;20043;-51
2022/06/27 00:49:29;;;;;;;10.77;7.22;;;17.70;99.90;;;;;;5110756;28;20039;-49
2022/06/27 00:51:55;;;;;;;9.32;7.13;;;17.70;99.90;;;;;;5090218;28;20035;-50
2022/06/27 00:54:22;;;;;;;12.85;6.78;;;17.60;99.90;;;;;;5110596;28;20031;-51
2022/06/27 00:56:48;;;;;;;10.70;7.30;;;17.70;99.90;;;;;;5110877;28;20031;-51
2022/06/27 00:59:14;;;;;;;13.15;7.13;;;17.60;99.90;;;;;;5109365;28;20039;-50
2022/06/27 01:01:40;;;;;;;11.00;7.60;;;17.60;99.90;;;;;;5110511;27;20060;-50
2022/06/27 01:04:06;;;;;;;10.55;6.20;;;17.60;99.90;;;;;;5092150;28;20035;-50
2022/06/27 01:06:32;;;;;;;10.02;6.60;;;17.60;99.90;;;;;;5110796;28;20044;-52
2022/06/27 01:08:58;;;;;;;10.45;6.53;;;17.60;99.90;;;;;;5110764;28;20482;-51
2022/06/27 01:11:24;;;;;;;11.63;6.93;;;17.60;99.90;;;;;;5110720;28;20062;-51
2022/06/27 01:13:49;;;;;;;11.73;6.97;;;17.60;99.90;;;;;;5110561;28;20062;-50
2022/06/27 01:16:16;;;;;;;11.35;7.53;;;17.60;99.90;;;;;;5110635;28;20035;-50
2022/06/27 01:18:42;;;;;;;10.98;7.47;;;17.70;99.90;;;;;;5110625;28;20367;-51
2022/06/27 01:21:14;;;;;;;12.20;7.50;;;17.60;99.90;;;;;;5110329;28;20027;-47
2022/06/27 01:23:40;;;;;;;10.93;7.93;;;17.60;99.90;;;;;;5110464;28;20039;-50
2022/06/27 01:26:06;;;;;;;12.15;7.78;;;17.70;99.90;;;;;;5092108;28;20398;-53
2022/06/27 01:28:32;;;;;;;12.02;8.00;;;17.70;99.90;;;;;;5110532;28;20043;-51
2022/06/27 01:30:57;;;;;;;12.20;7.88;;;17.60;99.90;;;;;;5110711;28;20536;-51
2022/06/27 01:33:23;;;;;;;13.43;8.00;;;17.60;99.90;;;;;;5110096;28;20048;-48
2022/06/27 01:36:41;;;;;;;10.80;7.85;;;17.60;99.90;;;;;;5110178;28;20070;-50
2022/06/27 01:38:34;;;;;;;10.65;7.63;;;17.60;99.90;;;;;;5110055;28;20039;-46
2022/06/27 01:41:00;;;;;;;13.00;8.35;;;17.60;99.90;;;;;;5110492;28;20089;-49
2022/06/27 01:43:25;;;;;;;13.75;8.85;;;17.60;99.90;;;;;;5110330;28;20036;-51
2022/06/27 01:45:51;;;;;;;12.32;8.55;;;17.50;99.90;;;;;;5110586;28;20487;-50
2022/06/27 01:48:17;;;;;;;12.60;8.20;;;17.50;99.90;;;;;;5110297;28;20036;-49
2022/06/27 01:50:47;;;;;;;11.90;8.40;;;17.60;99.90;;;;;;5109210;28;20081;-51
2022/06/27 01:53:13;;;;;;;11.60;8.50;;;17.50;99.90;;;;;;5110432;28;20119;-50
2022/06/27 01:55:39;;;;;;;13.40;8.88;;;17.60;99.90;;;;;;5110140;28;20047;-50
2022/06/27 01:58:05;;;;;;;11.52;8.70;;;17.50;99.90;;;;;;5108934;28;20035;-47
2022/06/27 02:00:30;;;;;;;13.73;8.85;;;17.50;99.90;;;;;;5110089;28;20043;-50
2022/06/27 02:02:56;;;;;;;13.60;9.60;;;17.50;99.90;;;;;;5110526;28;20069;-54
2022/06/27 02:05:22;;;;;;;11.35;8.80;;;17.50;99.90;;;;;;5113603;28;20175;-50
2022/06/27 02:07:50;;;;;;;12.82;9.13;;;17.50;99.90;;;;;;5112538;28;20041;-52
2022/06/27 02:10:16;;;;;;;11.45;8.27;;;17.50;99.90;;;;;;5113787;28;20040;-49
2022/06/27 02:12:41;;;;;;;12.07;8.55;;;17.40;99.90;;;;;;5114234;27;20912;-53
2022/06/27 02:15:09;;;;;;;12.57;8.23;;;17.50;99.90;;;;;;5113952;28;20378;-50
2022/06/27 02:17:35;;;;;;;16.77;8.90;;;17.50;99.90;;;;;;5113342;28;20413;-51
2022/06/27 02:20:03;;;;;;;12.65;8.85;;;17.50;99.90;;;;;;5113622;27;20047;-50
2022/06/27 02:22:29;;;;;;;11.52;8.68;;;17.50;99.90;;;;;;5113566;28;20043;-50
2022/06/27 02:24:55;;;;;;;13.98;9.43;;;17.50;99.90;;;;;;5113535;28;20071;-51
2022/06/27 02:27:21;;;;;;;16.55;9.02;;;17.50;99.90;;;;;;5113562;28;20035;-49
2022/06/27 02:29:47;;;;;;;13.35;8.82;;;17.50;99.90;;;;;;5113641;28;20055;-51
2022/06/27 02:32:13;;;;;;;14.13;9.27;;;17.50;99.90;;;;;;5113313;28;20159;-52
2022/06/27 02:34:39;;;;;;;11.57;8.93;;;17.50;99.90;;;;;;5113242;28;20070;-50
2022/06/27 02:37:06;;;;;;;11.50;8.40;;;17.50;99.90;;;;;;5113627;28;20039;-53
2022/06/27 02:39:35;;;;;;;12.82;8.07;;;17.50;99.90;;;;;;5113589;28;20062;-51
2022/06/27 02:42:02;;;;;;;10.70;8.43;;;17.40;99.90;;;;;;5113434;28;20036;-51
2022/06/27 02:44:29;;;;;;;13.00;8.75;;;17.40;99.90;;;;;;5113224;28;20084;-50
2022/06/27 02:46:55;;;;;;;12.93;8.20;;;17.30;99.90;;;;;;5112280;28;20063;-51
2022/06/27 02:49:21;;;;;;;11.60;8.13;;;17.40;99.90;;;;;;5113255;27;20127;-51
2022/06/27 02:52:00;;;;;;;13.25;8.27;;;17.40;99.90;;;;;;5113329;28;20391;-51
2022/06/27 02:55:04;;;;;;;11.77;8.30;;;17.30;99.90;;;;;;5113197;28;20510;-52
2022/06/27 02:57:35;;;;;;;12.50;8.70;;;17.40;99.90;;;;;;5029920;28;20120;-51
2022/06/27 03:00:02;;;;;;;12.05;8.60;;;17.40;99.90;;;;;;5100939;28;20413;-52
2022/06/27 03:02:28;;;;;;;11.57;8.15;;;17.40;99.90;;;;;;5112619;28;20073;-49
2022/06/27 03:04:56;;;;;;;11.65;8.48;;;17.30;99.90;;;;;;5094333;28;20118;-52
2022/06/27 03:07:22;;;;;;;13.88;9.10;;;17.30;99.90;;;;;;5112881;28;20475;-53
2022/06/27 03:09:47;;;;;;;11.90;8.50;;;17.20;99.90;;;;;;5113087;28;20088;-50
2022/06/27 03:12:13;;;;;;;13.60;8.90;;;17.30;99.90;;;;;;5112831;28;20039;-51
2022/06/27 03:14:38;;;;;;;14.02;8.70;;;17.20;99.90;;;;;;5112121;28;20036;-50
2022/06/27 03:17:04;;;;;;;14.05;9.35;;;17.30;99.90;;;;;;5112845;28;20039;-53
2022/06/27 03:19:30;;;;;;;12.57;8.80;;;17.30;99.90;;;;;;5094608;28;20379;-52
2022/06/27 03:21:56;;;;;;;13.75;8.60;;;17.30;99.90;;;;;;5112609;28;20035;-50
2022/06/27 03:24:22;;;;;;;12.23;9.07;;;17.30;99.90;;;;;;5112285;28;20464;-51
2022/06/27 03:26:48;;;;;;;10.98;9.07;;;17.30;99.90;;;;;;5094247;28;20042;-53
2022/06/27 03:29:14;;;;;;;12.68;10.13;;;17.30;99.90;;;;;;5112466;28;20482;-48
2022/06/27 03:31:41;;;;;;;12.27;10.07;;;17.30;99.90;;;;;;5112310;28;20039;-48
2022/06/27 03:34:07;;;;;;;12.23;9.20;;;17.30;99.90;;;;;;5111717;28;20079;-53
2022/06/27 03:36:32;;;;;;;11.25;9.63;;;17.20;99.90;;;;;;5112230;27;20577;-50
2022/06/27 03:38:58;;;;;;;12.70;9.70;;;17.20;99.90;;;;;;5112355;27;20054;-48
2022/06/27 03:41:24;;;;;;;14.50;10.43;;;17.20;99.90;;;;;;5111392;28;20449;-51
2022/06/27 03:43:50;;;;;;;12.52;9.82;;;17.20;99.90;;;;;;5112179;28;20039;-50
2022/06/27 03:46:15;;;;;;;11.90;10.20;;;17.20;99.90;;;;;;5112024;27;20368;-48
2022/06/27 03:51:26;;;;;;;14.90;10.10;;;17.10;99.90;;;;;;5111796;28;20040;-48
2022/06/27 03:53:52;;;;;;;15.02;10.27;;;17.10;99.90;;;;;;5111818;28;20085;-46
2022/06/27 03:56:19;;;;;;;13.95;10.35;;;17.20;99.90;;;;;;5112122;27;20043;-50
2022/06/27 03:58:45;;;;;;;14.07;10.32;;;17.20;99.90;;;;;;5111795;28;20074;-50
2022/06/27 04:01:11;;;;;;;13.30;10.50;;;17.20;99.90;;;;;;5111792;28;20158;-49
2022/06/27 04:03:37;;;;;;;13.05;10.30;;;17.10;99.90;;;;;;5112104;28;20078;-50
2022/06/27 04:06:03;;;;;;;14.25;9.93;;;17.10;99.90;;;;;;5110153;28;20062;-50
2022/06/27 04:08:28;;;;;;;15.45;11.20;;;17.10;99.90;;;;;;5111935;28;20031;-51
2022/06/27 04:10:57;;;;;;;15.38;10.43;;;17.20;99.90;;;;;;5111591;28;20043;-52
2022/06/27 04:13:22;;;;;;;16.27;11.73;;;17.20;99.90;;;;;;5111847;28;20082;-52
2022/06/27 04:15:48;;;;;;;14.77;10.80;;;17.30;99.90;;;;;;5111450;28;20486;-48
2022/06/27 04:18:14;;;;;;;15.88;11.13;;;17.20;99.90;;;;;;5111442;28;20039;-47
2022/06/27 04:20:42;;;;;;;14.57;10.13;;;17.30;99.90;;;;;;5111656;28;20382;-51
2022/06/27 04:23:08;;;;;;;11.45;9.65;;;17.30;99.90;;;;;;5111760;28;20479;-50
2022/06/27 04:25:33;;;;;;;14.25;9.60;;;17.30;99.90;;;;;;5111040;27;20093;-48
2022/06/27 04:27:59;;;;;;;12.45;8.70;;;17.30;99.90;;;;;;5110478;28;20035;-49
2022/06/27 04:30:25;;;;;;;13.65;8.57;;;17.30;99.90;;;;;;5111070;28;20126;-50
2022/06/27 04:32:51;;;;;;;11.43;7.97;;;17.30;99.90;;;;;;5111384;28;20057;-46
2022/06/27 04:35:17;;;;;;;10.15;8.20;;;17.30;99.90;;;;;;5110687;28;20040;-50
2022/06/27 04:37:44;;;;;;;11.93;8.45;;;17.30;99.90;;;;;;5111344;28;20038;-50
2022/06/27 04:40:13;;;;;;;10.43;8.20;;;17.30;99.90;;;;;;5111196;28;20039;-52
2022/06/27 04:42:40;;;;;;;10.30;7.75;;;17.30;99.90;;;;;;5111152;28;20039;-51
2022/06/27 04:45:12;;;;;;;12.95;8.25;;;17.20;99.90;;;;;;5110716;28;20047;-50
2022/06/27 04:47:42;;;;;;;14.38;8.73;;;17.30;99.90;;;;;;5111183;28;20063;-49
2022/06/27 04:50:12;;;;;;;14.40;8.80;;;17.30;99.90;;;;;;5111236;28;20382;-50
2022/06/27 04:52:39;;;;;;;15.10;9.55;;;17.30;99.90;;;;;;5110780;28;20047;-50
2022/06/27 04:55:09;;;;;;;13.90;9.02;;;17.40;99.90;;;;;;5110754;28;20040;-49
2022/06/27 04:57:42;;;;;;;12.07;8.85;;;17.30;99.90;;;;;;5110832;28;20036;-49
2022/06/27 05:00:13;;;;;;;11.70;9.00;;;17.40;99.90;;;;;;5110949;28;20540;-49
2022/06/27 05:02:39;;;;;;;12.85;8.25;;;17.30;99.90;;;;;;5092430;28;20141;-52
2022/06/27 05:05:06;;;;;;;12.75;8.38;;;17.30;99.90;;;;;;5110609;28;20406;-49
2022/06/27 05:07:31;;;;;;;10.55;8.60;;;17.30;99.90;;;;;;5110313;28;20114;-52
2022/06/27 05:09:57;;;;;;;11.88;8.88;;;17.30;99.90;;;;;;5110941;28;20493;-52
2022/06/27 05:12:24;;;;;;;10.20;7.97;;;17.40;99.90;;;;;;5092529;28;20044;-50
2022/06/27 05:14:54;;;;;;;12.52;8.18;;;17.40;99.90;;;;;;5110797;28;20040;-49
2022/06/27 05:17:21;;;;;;;11.35;7.80;;;17.40;99.90;;;;;;5110907;28;20043;-52
2022/06/27 05:19:47;;;;;;;11.25;8.80;;;17.40;99.90;;;;;;5110457;28;20063;-51
2022/06/27 05:22:12;;;;;;;10.95;8.32;;;17.50;99.90;;;;;;5110607;28;20120;-51
2022/06/27 05:24:39;;;;;;;10.57;8.95;;;17.50;99.90;;;;;;5110504;28;20055;-51
2022/06/27 05:27:05;;;;;;;12.23;8.57;;;17.50;99.90;;;;;;5109267;28;20047;-49
2022/06/27 05:29:31;;;;;;;13.60;8.13;;;17.40;99.90;;;;;;5110308;28;20425;-53
2022/06/27 05:31:56;;;;;;;13.45;8.15;;;17.50;99.90;;;;;;5110373;28;20035;-49
2022/06/27 05:34:22;;;;;;;9.68;7.55;;;17.50;99.90;;;;;;5091314;28;20437;-50
2022/06/27 05:36:48;;;;;;;12.25;7.85;;;17.50;99.90;;;;;;5110645;28;20597;-48
2022/06/27 05:39:14;;;;;;;10.43;7.93;;;17.50;99.90;;;;;;5112697;28;20475;-53
2022/06/27 05:41:41;;;;;;;11.13;7.82;;;17.50;99.90;;;;;;5114466;28;20097;-52
2022/06/27 05:44:07;;;;;;;11.20;8.10;;;17.50;99.90;;;;;;5114243;27;20209;-49
2022/06/27 05:46:33;;;;;;;10.82;8.05;;;17.50;99.90;;;;;;5114535;27;20544;-52
2022/06/27 05:49:01;;;;;;;10.40;7.65;;;17.40;99.90;;;;;;5114231;28;20035;-52
2022/06/27 05:51:28;;;;;;;9.82;7.68;;;17.50;99.90;;;;;;5113425;27;20483;-51
2022/06/27 05:53:56;;;;;;;11.93;8.85;;;17.50;99.90;;;;;;5114392;28;20499;-48
2022/06/27 05:56:26;;;;;;;10.20;8.07;;;17.40;99.90;;;;;;5114165;28;20479;-53
2022/06/27 05:58:52;;;;;;;8.73;7.68;;;17.40;99.90;;;;;;5114350;28;20036;-52
2022/06/27 06:01:18;;;;;;;12.93;8.45;;;17.40;99.90;;;;;;5113981;27;20502;-49
2022/06/27 06:03:45;;;;;;;10.57;8.30;;;17.50;99.90;;;;;;5113903;28;20050;-48
2022/06/27 06:06:11;;;;;;;10.93;7.78;;;17.50;99.90;;;;;;5113858;28;20039;-53
2022/06/27 06:08:37;;;;;;;11.07;8.40;;;17.50;99.90;;;;;;5112795;28;20035;-51
2022/06/27 06:11:03;;;;;;;11.13;9.05;;;17.50;99.90;;;;;;5114211;28;20100;-51
2022/06/27 06:13:30;;;;;;;12.00;8.57;;;17.50;99.90;;;;;;5113680;27;20060;-51
2022/06/27 06:15:57;;;;;;;11.13;9.13;;;17.50;99.90;;;;;;5114172;28;20039;-49
2022/06/27 06:18:23;;;;;;;12.88;9.57;;;17.50;99.90;;;;;;5095829;28;20047;-53
2022/06/27 06:20:49;;;;;;;11.82;9.23;;;17.50;99.90;;;;;;5113954;28;20126;-50
2022/06/27 06:23:15;;;;;;;10.35;7.68;;;17.50;99.90;;;;;;5112553;28;20425;-51
2022/06/27 06:25:42;;;;;;;9.90;7.65;;;17.40;99.90;;;;;;5113509;28;20040;-49
2022/06/27 06:28:08;;;;;;;10.32;7.90;;;17.50;99.90;;;;;;5113534;28;20052;-49
2022/06/27 06:30:34;;;;;;;10.25;7.45;;;17.50;99.90;;;;;;5113696;28;20039;-50
2022/06/27 06:33:04;;;;;;;9.70;7.38;;;17.50;99.90;;;;;;5113504;28;20115;-46
2022/06/27 06:35:31;;;;;;;11.68;7.25;;;17.60;99.90;;;;;;5113143;28;20043;-52
2022/06/27 06:37:58;;;;;;;9.73;7.57;;;17.50;99.90;;;;;;5113636;28;20036;-51
2022/06/27 06:40:24;;;;;;;11.77;8.02;;;17.50;99.90;;;;;;5113365;28;20122;-51
2022/06/27 06:42:51;;;;;;;10.15;8.02;;;17.50;99.90;;;;;;5113353;28;20032;-51
2022/06/27 06:45:17;;;;;;;9.02;7.63;;;17.50;99.90;;;;;;5113224;28;20062;-51
2022/06/27 06:47:44;;;;;;;12.35;7.80;;;17.60;99.90;;;;;;5094666;28;20039;-50
2022/06/27 06:50:13;;;;;;;11.88;8.30;;;17.70;99.90;;;;;;5109995;28;21511;-48
2022/06/27 06:52:41;;;;;;;10.07;7.72;;;17.70;99.90;;;;;;5107455;28;20050;-49
2022/06/27 06:55:09;;;;;;;11.73;9.43;;;17.70;99.90;;;;;;5111311;28;20043;-51
2022/06/27 06:57:35;;;;;;;12.77;9.90;;;17.60;99.90;;;;;;5110505;28;20036;-51
2022/06/27 07:00:00;;;;;;;12.93;9.52;;;17.70;99.90;;;;;;5112769;28;20036;-50
2022/06/27 07:02:27;;;;;;;12.13;9.73;;;17.70;99.90;;;;;;5112521;28;20126;-51
2022/06/27 07:04:53;;;;;;;11.50;9.10;;;17.80;99.90;;;;;;5090646;28;20509;-50
2022/06/27 07:07:20;;;;;;;11.00;9.10;;;17.70;99.90;;;;;;5110491;28;20115;-50
2022/06/27 07:09:46;;;;;;;9.88;8.40;;;17.70;99.90;;;;;;5110493;27;20031;-52
2022/06/27 07:12:11;;;;;;;10.98;7.80;;;17.70;99.90;;;;;;5111310;28;20050;-53
2022/06/27 07:14:37;;;;;;;8.88;6.53;;;17.70;99.90;;;;;;5109988;28;20083;-51
2022/06/27 07:17:03;;;;;;;11.85;7.53;;;17.70;99.90;;;;;;5111194;28;20043;-48
2022/06/27 07:19:29;;;;;;;9.68;6.75;;;17.60;99.90;;;;;;5090619;28;20048;-50
2022/06/27 07:21:55;;;;;;;8.65;6.50;;;17.60;99.90;;;;;;5109790;28;20035;-51
2022/06/27 07:24:20;;;;;;;9.63;6.70;;;17.60;99.90;;;;;;5092962;27;20036;-51
2022/06/27 07:26:46;;;;;;;6.05;4.75;;;17.60;99.90;;;;;;5113632;27;20482;-49
2022/06/27 07:29:12;;;;;;;6.32;4.35;;;17.60;99.90;;;;;;5111997;28;20070;-49
2022/06/27 07:31:37;;;;;;;5.68;3.90;;;17.60;99.90;;;;;;5093700;28;20046;-49
2022/06/27 07:34:07;;;;;;;7.10;4.35;;;17.70;99.90;;;;;;5111586;28;20062;-51
2022/06/27 07:36:34;;;;;;;6.57;3.63;;;17.70;99.90;;;;;;5111113;28;20048;-50
2022/06/27 07:38:59;;;;;;;5.15;3.58;;;17.90;99.90;;;;;;5111433;28;20044;-47
2022/06/27 07:41:30;;;;;;;7.43;3.47;;;17.90;99.90;;;;;;5109321;28;20539;-51
2022/06/27 07:43:56;;;;;;;5.40;3.20;;;17.90;99.90;;;;;;5107626;28;20127;-51
2022/06/27 07:46:21;;;;;;;5.60;3.25;;;17.90;99.90;;;;;;5106339;28;20122;-53
2022/06/27 07:48:49;;;;;;;5.80;2.90;;;17.90;99.90;;;;;;5112389;28;20036;-52
2022/06/27 07:51:19;;;;;;;5.70;2.72;;;18.00;99.90;;;;;;5112080;28;20100;-46
2022/06/27 07:53:46;;;;;;;5.20;2.85;;;18.10;99.90;;;;;;5093583;28;20073;-53
2022/06/27 07:56:13;;;;;;;3.83;2.40;;;18.10;99.90;;;;;;5107788;28;20076;-54
2022/06/27 07:58:39;;;;;;;4.88;2.60;;;18.10;99.90;;;;;;5093276;28;20035;-50
2022/06/27 08:01:10;;;;;;;5.55;2.65;;;18.20;99.90;;;;;;5109554;28;21127;-53
2022/06/27 08:03:39;;;;;;;4.45;2.63;;;18.20;99.90;;;;;;5109485;28;20031;-48
2022/06/27 08:06:10;;;;;;;5.68;3.20;;;18.20;99.90;;;;;;5109379;28;20485;-51
2022/06/27 08:08:41;;;;;;;4.60;3.13;;;18.20;99.90;;;;;;5104727;28;20036;-49
2022/06/27 08:11:19;;;;;;;4.95;3.33;;;18.10;99.90;;;;;;5108048;27;20040;-51
2022/06/27 08:13:47;;;;;;;5.57;3.17;;;18.10;99.90;;;;;;5108189;27;20394;-52
2022/06/27 08:16:14;;;;;;;6.90;3.28;;;18.20;99.90;;;;;;5104698;28;20067;-51
2022/06/27 08:18:44;;;;;;;6.68;3.03;;;18.20;99.90;;;;;;5110587;28;20031;-50
2022/06/27 08:21:10;;;;;;;5.72;3.47;;;18.10;99.90;;;;;;5075058;28;20044;-50
2022/06/27 08:23:38;;;;;;;5.65;2.95;;;18.10;99.90;;;;;;5108851;28;20035;-50
2022/06/27 08:26:08;;;;;;;5.38;2.53;;;18.10;99.90;;;;;;5091753;28;20047;-51
2022/06/27 08:28:36;;;;;;;4.32;2.42;;;18.20;99.90;;;;;;5109269;28;20150;-51
2022/06/27 08:31:07;;;;;;;5.15;2.53;;;18.10;99.90;;;;;;5110385;27;20486;-50
2022/06/27 08:33:33;;;;;;;5.63;2.60;;;18.10;99.90;;;;;;5109213;28;20038;-51
2022/06/27 08:36:01;;;;;;;3.95;2.67;;;18.20;99.90;;;;;;5109877;28;20035;-51
2022/06/27 08:38:28;;;;;;;5.97;3.47;;;18.30;99.90;;;;;;5110229;28;20035;-50
2022/06/27 08:40:56;;;;;;;7.20;3.70;;;18.40;99.90;;;;;;5108599;28;20513;-50
2022/06/27 08:43:23;;;;;;;5.30;3.13;;;18.50;99.90;;;;;;5106918;28;20035;-52
2022/06/27 08:45:51;;;;;;;5.93;4.25;;;18.60;99.90;;;;;;5106962;28;20071;-53
2022/06/27 08:48:17;;;;;;;5.32;3.28;;;18.70;99.90;;;;;;5105605;28;20051;-50
2022/06/27 08:50:44;;;;;;;5.45;3.10;;;19.00;99.90;;;;;;5104419;28;20059;-52
2022/06/27 08:53:12;;;;;;;5.32;2.75;;;19.20;99.90;;;;;;5107404;28;20634;-51
2022/06/27 08:55:42;;;;;;;3.38;2.20;;;19.20;99.90;;;;;;5108781;28;20051;-48
2022/06/27 08:58:10;;;;;;;3.95;2.30;;;19.20;99.90;;;;;;5094682;28;20040;-52
2022/06/27 09:00:40;;;;;;;4.60;2.85;;;19.30;99.90;;;;;;5099819;28;20502;-51
2022/06/27 09:03:08;;;;;;;6.45;3.47;;;19.20;99.90;;;;;;5088107;27;20044;-50
2022/06/27 09:05:34;;;;;;;5.82;4.03;;;19.30;99.90;;;;;;5109310;28;20489;-50
2022/06/27 09:08:08;;;;;;;5.82;3.88;;;19.30;99.90;;;;;;5106484;28;20122;-52
2022/06/27 09:10:42;;;;;;;6.30;4.03;;;19.40;99.90;;;;;;5110345;28;20065;-49
2022/06/27 09:13:11;;;;;;;;;;;19.40;99.90;;;;;;5109456;28;20067;-51
2022/06/27 09:15:49;;;;;;;6.18;4.75;;;19.40;99.90;;;;;;5108077;28;19942;-52
2022/06/27 09:18:17;;;;;;;8.98;5.63;;;19.50;99.90;;;;;;5111599;28;20039;-53
2022/06/27 09:20:52;;;;;;;7.30;5.38;;;19.50;99.90;;;;;;5109465;28;20114;-50
2022/06/27 09:23:43;;;;;;;8.57;5.97;;;19.70;99.90;;;;;;5108368;28;20360;-51
2022/06/27 09:26:19;;;;;;;10.02;6.18;;;19.80;99.90;;;;;;5106560;28;21192;-53
2022/06/27 09:29:00;;;;;;;9.25;6.15;;;20.00;99.90;;;;;;5108816;28;20046;-51
2022/06/27 09:31:30;;;;;;;8.75;6.20;;;20.10;99.90;;;;;;5103768;28;20035;-50
2022/06/27 09:34:16;;;;;;;8.90;6.35;;;20.20;99.90;;;;;;5107503;28;20039;-51
2022/06/27 09:36:49;;;;;;;9.13;6.80;;;20.20;99.90;;;;;;5108362;28;20032;-50
2022/06/27 09:39:23;;;;;;;10.18;7.00;;;20.20;99.90;;;;;;5104088;28;20039;-54
2022/06/27 09:41:54;;;;;;;11.48;7.07;;;20.30;99.90;;;;;;5108240;28;20102;-48
2022/06/27 09:44:24;;;;;;;9.55;7.13;;;20.20;99.90;;;;;;5110432;28;20462;-52
2022/06/27 09:47:03;;;;;;;12.07;8.23;;;20.40;99.90;;;;;;5110150;28;20040;-50
2022/06/27 09:49:36;;;;;;;11.23;8.13;;;20.40;99.90;;;;;;5110206;28;20050;-51
2022/06/27 09:52:08;;;;;;;10.38;7.65;;;20.30;99.90;;;;;;5106816;28;20115;-49
2022/06/27 09:54:35;;;;;;;9.27;7.82;;;20.30;99.90;;;;;;5106285;28;20100;-50
2022/06/27 09:57:02;;;;;;;12.13;9.05;;;20.40;99.90;;;;;;5109349;28;20474;-50
2022/06/27 09:59:29;;;;;;;9.45;7.50;;;20.30;99.90;;;;;;5108483;28;20489;-48
2022/06/27 10:01:57;;;;;;;7.97;6.95;;;20.40;99.90;;;;;;5104416;28;20056;-51
2022/06/27 10:04:28;;;;;;;10.73;6.60;;;20.40;99.90;;;;;;5107817;28;20118;-49
2022/06/27 10:06:57;;;;;;;9.95;7.30;;;20.50;99.90;;;;;;5109187;28;20031;-52
2022/06/27 10:09:26;;;;;;;10.73;7.63;;;20.30;99.90;;;;;;5110313;28;20527;-49
2022/06/27 10:12:19;;;;;;;8.77;6.95;;;20.30;99.90;;;;;;5109860;28;20043;-53
2022/06/27 10:14:45;;;;;;;8.17;6.13;;;20.30;99.90;;;;;;5110119;28;20463;-50
2022/06/27 10:17:15;;;;;;;8.95;6.10;;;20.30;99.90;;;;;;5110110;28;20281;-54
2022/06/27 10:20:20;;;;;;;9.00;5.43;;;20.30;99.90;;;;;;5109792;28;20031;-50
2022/06/27 10:23:04;;;;;;;10.18;6.20;;;20.40;99.90;;;;;;5109430;28;20047;-51
2022/06/27 10:25:29;;;;;;;9.23;6.07;;;20.40;99.90;;;;;;5112556;28;20490;-51
2022/06/27 10:28:10;;;;;;;9.13;5.88;;;20.40;99.90;;;;;;5113528;27;20078;-50
2022/06/27 10:30:53;;;;;;;9.00;5.97;;;20.50;99.90;;;;;;5113623;27;20039;-52
2022/06/27 10:33:24;;;;;;;8.57;6.43;;;20.30;99.90;;;;;;5111628;28;20036;-54
2022/06/27 10:35:59;;;;;;;9.60;5.38;;;20.30;99.90;;;;;;5113133;27;20528;-54
2022/06/27 10:38:30;;;;;;;13.95;6.10;;;20.40;99.90;;;;;;5113440;28;20111;-49
2022/06/27 10:40:58;;;;;;;8.52;5.75;;;20.50;99.90;;;;;;5113598;28;20031;-53
2022/06/27 10:43:39;;;;;;;9.02;5.75;;;20.30;99.90;;;;;;5112795;28;20031;-49
2022/06/27 10:46:10;;;;;;;9.55;5.63;;;20.50;99.90;;;;;;5113576;28;20387;-52
2022/06/27 10:48:45;;;;;;;8.95;5.30;;;20.40;99.90;;;;;;5112769;28;20034;-51
2022/06/27 10:51:31;;;;;;;8.82;5.15;;;20.50;99.90;;;;;;5113118;27;20368;-53
2022/06/27 10:54:06;;;;;;;9.27;5.50;;;20.60;99.90;;;;;;5113192;28;20047;-48
2022/06/27 10:56:47;;;;;;;9.65;5.35;;;20.60;99.90;;;;;;5113061;27;20042;-50
2022/06/27 10:59:15;;;;;;;10.25;5.80;;;20.80;99.90;;;;;;5113151;28;20027;-53
2022/06/27 11:01:42;;;;;;;10.32;6.20;;;20.90;99.90;;;;;;5112244;28;20516;-53
2022/06/27 11:04:27;;;;;;;9.25;6.50;;;20.90;99.90;;;;;;5094930;28;20070;-52
2022/06/27 11:06:59;;;;;;;10.38;7.07;;;20.70;99.90;;;;;;5111891;28;20039;-53
2022/06/27 11:09:45;;;;;;;10.70;7.38;;;20.80;99.90;;;;;;5104849;28;20043;-48
2022/06/27 11:12:13;;;;;;;10.45;7.32;;;20.80;99.90;;;;;;5100495;28;20088;-50
2022/06/27 11:14:53;;;;;;;9.48;7.43;;;20.90;99.90;;;;;;5101458;27;20032;-50
2022/06/27 11:17:35;;;;;;;9.52;7.38;;;21.00;99.90;;;;;;5105070;28;20063;-49
2022/06/27 11:20:13;;;;;;;8.32;6.88;;;21.00;99.90;;;;;;5106311;27;20027;-50
2022/06/27 11:22:40;;;;;;;13.55;9.00;;;21.20;99.90;;;;;;5106031;28;20032;-51
2022/06/27 11:25:07;;;;;;;12.43;9.05;;;21.40;99.90;;;;;;5103600;27;20027;-53
2022/06/27 11:27:52;;;;;;;12.15;8.35;;;21.50;99.90;;;;;;5101919;28;20089;-51
2022/06/27 11:33:15;;;;;;;8.13;6.63;;;21.70;99.90;;;;;;5101608;28;20131;-50
2022/06/27 11:35:41;;;;;;;10.38;6.43;;;21.80;99.90;;;;;;5104258;28;20047;-49
2022/06/27 11:38:07;;;;;;;8.63;5.47;;;21.60;99.90;;;;;;5095547;28;20071;-49
2022/06/27 11:40:33;;;;;;;9.73;5.68;;;21.50;99.90;;;;;;5100848;28;20241;-49
2022/06/27 11:42:58;;;;;;;10.18;5.22;;;21.60;99.90;;;;;;5101364;27;20028;-50
2022/06/27 11:45:24;;;;;;;6.25;4.30;;;21.40;99.90;;;;;;5097737;28;20067;-51
2022/06/27 11:47:50;;;;;;;9.38;5.57;;;21.50;99.90;;;;;;5098827;28;20043;-49
2022/06/27 11:50:19;;;;;;;8.38;5.35;;;21.60;99.90;;;;;;5101671;28;20040;-48
2022/06/27 11:52:49;;;;;;;8.63;4.95;;;21.80;99.90;;;;;;5091836;28;20049;-51
2022/06/27 11:55:21;;;;;;;7.65;5.05;;;22.00;99.90;;;;;;5102343;28;20046;-50
2022/06/27 11:57:50;;;;;;;5.90;3.85;;;22.30;99.90;;;;;;5100152;28;20063;-51
2022/06/27 12:00:22;;;;;;;6.22;3.35;;;22.40;99.90;;;;;;5102142;28;20513;-49
2022/06/27 12:02:59;;;;;;;8.23;4.70;;;22.70;99.90;;;;;;5102261;28;20059;-46
2022/06/27 12:05:26;;;;;;;7.70;4.75;;;22.60;99.90;;;;;;5101812;27;20043;-51
2022/06/27 12:08:00;;;;;;;8.95;5.55;;;22.90;99.90;;;;;;5102291;28;20036;-48
2022/06/27 12:10:35;;;;;;;8.95;4.07;;;23.00;99.90;;;;;;5108212;27;20500;-52
2022/06/27 12:13:01;;;;;;;8.05;3.08;;;23.00;99.90;;;;;;5101581;28;20039;-50
2022/06/27 12:15:28;;;;;;;6.00;3.85;;;22.80;99.90;;;;;;5107383;28;20093;-52
2022/06/27 12:17:58;;;;;;;8.57;4.07;;;22.50;99.90;;;;;;5102578;28;20483;-50
2022/06/27 12:20:30;;;;;;;8.80;3.65;;;22.50;99.90;;;;;;5103441;28;20076;-50
2022/06/27 12:22:55;;;;;;;8.35;3.95;;;22.30;99.90;;;;;;5105894;27;20387;-49
2022/06/27 12:25:21;;;;;;;7.82;4.00;;;22.30;99.90;;;;;;5102927;28;20039;-52
2022/06/27 12:27:48;;;;;;;9.30;4.43;;;22.40;99.90;;;;;;5105195;28;20110;-52
2022/06/27 12:30:15;;;;;;;8.38;4.43;;;22.30;99.90;;;;;;5105443;28;20074;-50
2022/06/27 12:32:42;;;;;;;8.07;3.90;;;22.30;99.90;;;;;;5103716;27;20449;-50
2022/06/27 12:35:09;;;;;;;9.13;4.63;;;22.20;99.90;;;;;;5110676;28;20179;-50
2022/06/27 12:37:35;;;;;;;7.32;4.07;;;22.20;99.90;;;;;;5110548;28;20036;-50
2022/06/27 12:40:02;;;;;;;7.75;3.72;;;22.00;99.90;;;;;;5107853;28;20040;-50
2022/06/27 12:42:28;;;;;;;15.15;4.38;;;22.10;99.90;;;;;;5105432;28;20131;-50
2022/06/27 12:44:54;;;;;;;7.80;4.53;;;21.80;99.90;;;;;;5107830;28;20118;-48
2022/06/27 12:47:20;;;;;;;6.80;4.40;;;21.70;99.90;;;;;;5108495;28;20036;-52
2022/06/27 12:49:46;;;;;;;6.80;4.38;;;21.50;99.90;;;;;;5109667;28;20067;-50
2022/06/27 12:52:12;;;;;;;8.85;4.60;;;21.40;99.90;;;;;;5111159;28;20075;-51